createdAt,value
2023-02-20T00:00:35.797Z,79.08
2023-02-20T00:03:02.586Z,79.93
2023-02-20T00:05:28.897Z,79.66
2023-02-20T00:07:55.320Z,79.59
2023-02-20T00:10:21.702Z,79.90
2023-02-20T00:12:48.117Z,79.58
2023-02-20T00:15:16.222Z,80.34
2023-02-20T00:17:43.306Z,80.22
2023-02-20T00:20:10.043Z,80.07
2023-02-20T00:22:36.434Z,79.99
2023-02-20T00:25:02.848Z,80.60
2023-02-20T00:27:29.256Z,80.43
2023-02-20T00:29:55.531Z,80.06
2023-02-20T00:32:21.815Z,80.46
2023-02-20T00:34:48.155Z,79.81
2023-02-20T00:37:14.578Z,80.45
2023-02-20T00:39:40.861Z,80.23
2023-02-20T00:42:07.272Z,80.11
2023-02-20T00:44:33.584Z,80.65
2023-02-20T00:46:59.887Z,80.42
2023-02-20T00:49:26.472Z,79.99
2023-02-20T00:51:52.842Z,80.39
2023-02-20T00:54:19.182Z,80.09
2023-02-20T00:56:45.500Z,80.32
2023-02-20T00:59:11.786Z,80.38
2023-02-20T01:01:38.307Z,81.05
2023-02-20T01:04:04.715Z,80.61
2023-02-20T01:06:31.105Z,80.06
2023-02-20T01:08:57.728Z,80.80
2023-02-20T01:11:24.027Z,80.56
2023-02-20T01:13:50.607Z,80.70
2023-02-20T01:16:16.945Z,80.84
2023-02-20T01:18:43.240Z,80.72
2023-02-20T01:21:09.595Z,80.37
2023-02-20T01:23:35.907Z,80.61
2023-02-20T01:26:02.270Z,80.36
2023-02-20T01:28:28.657Z,80.35
2023-02-20T01:36:13.126Z,80.44
2023-02-20T01:38:40.375Z,80.68
2023-02-20T01:41:08.645Z,80.78
2023-02-20T01:43:35.067Z,80.29
2023-02-20T01:46:39.763Z,80.69
2023-02-20T01:49:11.810Z,80.88
2023-02-20T01:51:42.601Z,80.75
2023-02-20T01:54:14.278Z,80.49
2023-02-20T01:56:41.736Z,80.81
2023-02-20T01:59:09.146Z,80.74
2023-02-20T02:01:35.736Z,80.43
2023-02-20T02:04:06.317Z,80.35
2023-02-20T02:06:34.146Z,80.15
2023-02-20T02:09:09.030Z,80.36
2023-02-20T02:11:35.500Z,80.32
2023-02-20T02:14:01.857Z,80.42
2023-02-20T02:16:49.044Z,80.74
2023-02-20T02:19:24.594Z,80.27
2023-02-20T02:22:09.129Z,80.56
2023-02-20T02:25:13.968Z,80.21
2023-02-20T02:27:59.073Z,80.80
2023-02-20T02:30:50.291Z,80.91
2023-02-20T02:33:40.751Z,80.81
2023-02-20T02:36:22.136Z,80.61
2023-02-20T02:39:00.809Z,80.00
2023-02-20T02:41:42.042Z,80.20
2023-02-20T02:44:18.020Z,79.77
2023-02-20T02:46:53.852Z,79.70
2023-02-20T02:49:30.434Z,79.86
2023-02-20T02:51:59.025Z,79.46
2023-02-20T02:54:27.899Z,80.04
2023-02-20T02:57:25.306Z,80.08
2023-02-20T03:00:00.349Z,80.82
2023-02-20T03:02:32.908Z,81.23
2023-02-20T03:05:04.552Z,80.57
2023-02-20T03:07:36.375Z,80.79
2023-02-20T03:10:08.586Z,80.39
2023-02-20T03:12:38.306Z,81.05
2023-02-20T03:15:14.101Z,81.14
2023-02-20T03:17:47.186Z,81.68
2023-02-20T03:20:18.387Z,81.04
2023-02-20T03:22:52.669Z,80.88
2023-02-20T03:25:25.953Z,81.13
2023-02-20T03:27:59.131Z,80.75
2023-02-20T03:30:34.826Z,81.15
2023-02-20T03:33:12.126Z,80.90
2023-02-20T03:35:42.575Z,80.83
2023-02-20T03:38:10.218Z,81.29
2023-02-20T03:40:37.405Z,80.92
2023-02-20T03:43:09.729Z,81.07
2023-02-20T03:45:39.763Z,81.04
2023-02-20T03:48:15.430Z,80.65
2023-02-20T03:50:42.190Z,80.59
2023-02-20T03:53:08.549Z,80.80
2023-02-20T03:55:34.994Z,80.19
2023-02-20T03:58:05.242Z,80.25
2023-02-20T04:00:36.368Z,80.33
2023-02-20T04:03:10.513Z,80.24
2023-02-20T04:05:40.773Z,79.95
2023-02-20T04:08:15.815Z,79.54
2023-02-20T04:10:48.452Z,79.31
2023-02-20T04:13:16.339Z,79.46
2023-02-20T04:15:43.897Z,78.81
2023-02-20T04:18:11.897Z,79.44
2023-02-20T04:20:38.355Z,79.43
2023-02-20T04:23:15.658Z,79.41
2023-02-20T04:25:46.858Z,79.25
2023-02-20T04:28:15.209Z,79.10
2023-02-20T04:30:41.937Z,79.31
2023-02-20T04:33:11.377Z,79.03
2023-02-20T04:35:37.739Z,78.91
2023-02-20T04:38:04.040Z,78.52
2023-02-20T04:40:30.456Z,78.92
2023-02-20T04:42:56.902Z,78.89
2023-02-20T04:45:23.202Z,79.13
2023-02-20T04:47:49.575Z,79.12
2023-02-20T04:50:27.510Z,79.14
2023-02-20T04:52:54.216Z,78.82
2023-02-20T04:55:20.925Z,78.53
2023-02-20T04:57:48.368Z,79.14
2023-02-20T05:00:16.359Z,78.12
2023-02-20T05:02:42.660Z,78.17
2023-02-20T05:05:21.346Z,77.46
2023-02-20T05:07:48.082Z,77.19
2023-02-20T05:10:16.446Z,76.63
2023-02-20T05:12:42.779Z,77.06
2023-02-20T05:15:09.852Z,76.69
2023-02-20T05:17:36.650Z,76.19
2023-02-20T05:20:04.921Z,76.06
2023-02-20T05:22:31.254Z,76.39
2023-02-20T05:24:57.663Z,76.09
2023-02-20T05:27:25.138Z,76.47
2023-02-20T05:29:53.868Z,76.43
2023-02-20T05:32:22.506Z,76.12
2023-02-20T05:34:49.439Z,76.44
2023-02-20T05:37:17.507Z,75.81
2023-02-20T05:39:44.079Z,76.67
2023-02-20T05:42:10.462Z,76.33
2023-02-20T05:44:36.958Z,76.55
2023-02-20T05:47:04.603Z,76.92
2023-02-20T05:49:31.091Z,76.87
2023-02-20T05:51:58.346Z,77.03
2023-02-20T05:54:24.731Z,77.24
2023-02-20T05:56:51.733Z,77.17
2023-02-20T05:59:21.129Z,77.42
2023-02-20T06:01:49.698Z,77.92
2023-02-20T06:04:16.095Z,77.41
2023-02-20T06:06:42.839Z,77.78
2023-02-20T06:09:11.101Z,77.98
2023-02-20T06:11:38.118Z,77.62
2023-02-20T06:14:05.943Z,77.89
2023-02-20T06:16:34.815Z,77.45
2023-02-20T06:19:01.690Z,77.90
2023-02-20T06:21:28.255Z,77.80
2023-02-20T06:23:55.508Z,77.87
2023-02-20T06:26:23.006Z,77.26
2023-02-20T06:28:49.495Z,77.32
2023-02-20T06:31:25.871Z,77.47
2023-02-20T06:33:53.343Z,77.53
2023-02-20T06:36:35.313Z,77.65
2023-02-20T06:39:01.718Z,77.41
2023-02-20T06:41:28.111Z,77.37
2023-02-20T06:43:54.551Z,77.22
2023-02-20T06:46:21.738Z,77.02
2023-02-20T06:48:53.912Z,77.03
2023-02-20T06:51:23.086Z,76.85
2023-02-20T06:53:49.633Z,77.11
2023-02-20T06:56:21.752Z,78.42
2023-02-20T06:58:50.416Z,77.95
2023-02-20T07:01:18.222Z,77.90
2023-02-20T07:03:45.966Z,77.65
2023-02-20T07:06:12.894Z,76.85
2023-02-20T07:08:39.403Z,76.13
2023-02-20T07:11:05.808Z,76.71
2023-02-20T07:13:32.145Z,75.67
2023-02-20T07:15:58.598Z,75.91
2023-02-20T07:18:25.036Z,75.45
2023-02-20T07:20:53.079Z,75.38
2023-02-20T07:23:21.745Z,75.43
2023-02-20T07:25:48.364Z,75.82
2023-02-20T07:28:14.804Z,74.80
2023-02-20T07:30:41.209Z,75.24
2023-02-20T07:33:07.618Z,74.98
2023-02-20T07:35:33.938Z,74.58
2023-02-20T07:38:00.424Z,75.27
2023-02-20T07:40:26.823Z,75.49
2023-02-20T07:42:53.271Z,75.30
2023-02-20T07:45:20.377Z,75.37
2023-02-20T07:47:46.902Z,77.00
2023-02-20T07:50:15.567Z,75.17
2023-02-20T08:00:49.646Z,73.81
2023-02-20T08:03:15.930Z,73.38
2023-02-20T08:05:49.011Z,74.21
2023-02-20T08:08:16.396Z,73.30
2023-02-20T08:10:42.679Z,72.38
2023-02-20T08:13:09.179Z,72.42
2023-02-20T08:15:35.511Z,71.24
2023-02-20T08:18:02.488Z,72.00
2023-02-20T08:20:29.665Z,71.03
2023-02-20T08:22:56.359Z,70.35
2023-02-20T08:25:22.814Z,71.10
2023-02-20T08:27:49.843Z,70.22
2023-02-20T08:30:21.468Z,69.81
2023-02-20T08:32:47.993Z,69.92
2023-02-20T08:35:14.651Z,70.67
2023-02-20T08:37:40.973Z,70.45
2023-02-20T08:40:08.220Z,70.29
2023-02-20T08:42:34.912Z,70.86
2023-02-20T08:45:02.299Z,71.09
2023-02-20T08:47:28.753Z,70.88
2023-02-20T08:49:55.058Z,70.38
2023-02-20T08:52:21.807Z,70.02
2023-02-20T08:54:49.769Z,69.83
2023-02-20T08:57:17.238Z,69.68
2023-02-20T08:59:43.745Z,69.47
2023-02-20T09:02:24.268Z,68.71
2023-02-20T09:04:51.005Z,68.33
2023-02-20T09:07:17.355Z,67.33
2023-02-20T09:09:43.698Z,67.71
2023-02-20T09:12:10.248Z,66.97
2023-02-20T09:14:37.329Z,67.44
2023-02-20T09:17:04.786Z,65.42
2023-02-20T09:19:31.450Z,66.92
2023-02-20T09:21:57.980Z,66.84
2023-02-20T09:24:24.302Z,65.97
2023-02-20T09:26:50.662Z,65.79
2023-02-20T09:29:17.379Z,64.98
2023-02-20T09:31:43.787Z,65.69
2023-02-20T09:34:10.287Z,66.37
2023-02-20T09:36:36.618Z,66.15
2023-02-20T09:39:03.189Z,64.39
2023-02-20T09:41:49.302Z,64.12
2023-02-20T09:44:27.058Z,63.80
2023-02-20T09:47:00.459Z,63.94
2023-02-20T09:49:32.220Z,63.90
2023-02-20T09:52:05.867Z,63.51
2023-02-20T09:54:41.463Z,63.33
2023-02-20T09:57:14.036Z,63.36
2023-02-20T09:59:52.317Z,61.87
2023-02-20T10:02:24.163Z,61.91
2023-02-20T10:05:01.156Z,62.09
2023-02-20T10:07:36.477Z,61.26
2023-02-20T10:10:18.661Z,60.89
2023-02-20T10:13:16.539Z,59.69
2023-02-20T10:15:55.343Z,59.94
2023-02-20T10:18:36.681Z,59.51
2023-02-20T10:21:20.150Z,59.07
2023-02-20T10:24:04.918Z,59.24
2023-02-20T10:26:43.616Z,60.61
2023-02-20T10:29:29.094Z,59.20
2023-02-20T10:32:10.792Z,57.95
2023-02-20T10:34:49.790Z,58.34
2023-02-20T10:37:19.791Z,57.38
2023-02-20T10:39:53.461Z,57.03
2023-02-20T10:42:25.679Z,57.43
2023-02-20T10:45:00.779Z,58.78
2023-02-20T10:47:40.700Z,57.59
2023-02-20T10:50:06.975Z,58.42
2023-02-20T10:52:43.630Z,58.39
2023-02-20T10:55:20.844Z,57.87
2023-02-20T10:58:08.668Z,57.81
2023-02-20T11:00:53.951Z,56.69
2023-02-20T11:03:32.632Z,57.38
2023-02-20T11:06:02.080Z,57.79
2023-02-20T11:08:28.600Z,56.36
2023-02-20T11:10:59.963Z,56.40
2023-02-20T11:13:26.618Z,55.36
2023-02-20T11:15:57.512Z,55.51
2023-02-20T11:18:30.842Z,55.71
2023-02-20T11:20:57.283Z,56.14
2023-02-20T11:23:37.269Z,56.01
2023-02-20T11:26:36.140Z,56.01
2023-02-20T11:29:13.557Z,55.28
2023-02-20T11:31:40.179Z,55.54
2023-02-20T11:34:15.971Z,53.55
2023-02-20T11:36:46.537Z,53.97
2023-02-20T11:39:20.023Z,53.41
2023-02-20T11:41:47.905Z,52.47
2023-02-20T11:44:24.105Z,52.18
2023-02-20T11:47:10.063Z,51.80
2023-02-20T11:49:36.605Z,51.74
2023-02-20T11:52:22.953Z,51.72
2023-02-20T11:55:18.217Z,51.79
2023-02-20T11:57:44.920Z,51.52
2023-02-20T12:00:18.595Z,52.10
2023-02-20T12:02:48.900Z,52.11
2023-02-20T12:05:15.517Z,52.40
2023-02-20T12:07:43.385Z,52.00
2023-02-20T12:10:31.190Z,51.85
2023-02-20T12:12:58.231Z,52.77
2023-02-20T12:15:27.557Z,52.48
2023-02-20T12:18:07.357Z,51.81
2023-02-20T12:20:37.101Z,50.55
2023-02-20T12:23:25.735Z,50.97
2023-02-20T12:26:10.660Z,50.07
2023-02-20T12:28:50.127Z,51.06
2023-02-20T12:31:21.380Z,49.97
2023-02-20T12:33:56.719Z,49.84
2023-02-20T12:36:40.603Z,49.27
2023-02-20T12:39:06.876Z,49.80
2023-02-20T12:42:02.913Z,47.87
2023-02-20T12:44:46.162Z,48.23
2023-02-20T12:47:18.498Z,48.86
2023-02-20T12:49:58.919Z,48.87
2023-02-20T12:53:02.615Z,48.88
2023-02-20T12:55:31.793Z,48.67
2023-02-20T12:58:26.168Z,48.50
2023-02-20T13:00:56.542Z,47.24
2023-02-20T13:03:41.178Z,47.92
2023-02-20T13:06:08.597Z,47.90
2023-02-20T13:09:05.391Z,47.70
2023-02-20T13:11:38.506Z,47.50
2023-02-20T13:14:25.376Z,47.79
2023-02-20T13:17:10.403Z,48.64
2023-02-20T13:19:45.906Z,47.51
2023-02-20T13:22:12.350Z,46.81
2023-02-20T13:24:39.950Z,47.14
2023-02-20T13:27:09.098Z,48.05
2023-02-20T13:29:56.413Z,48.47
2023-02-20T13:32:26.732Z,47.39
2023-02-20T13:34:53.118Z,46.86
2023-02-20T13:37:34.411Z,47.24
2023-02-20T13:40:28.629Z,47.11
2023-02-20T13:43:13.359Z,47.66
2023-02-20T13:45:41.939Z,46.95
2023-02-20T13:48:37.358Z,46.22
2023-02-20T13:51:15.758Z,47.01
2023-02-20T13:53:48.129Z,45.69
2023-02-20T13:56:19.573Z,44.58
2023-02-20T13:58:46.883Z,45.99
2023-02-20T14:01:13.196Z,46.31
2023-02-20T14:03:39.641Z,46.54
2023-02-20T14:06:16.622Z,46.92
2023-02-20T14:09:10.938Z,46.04
2023-02-20T14:11:39.752Z,46.07
2023-02-20T14:14:28.093Z,46.51
2023-02-20T14:17:04.261Z,46.71
2023-02-20T14:19:31.055Z,46.81
2023-02-20T14:22:13.917Z,45.15
2023-02-20T14:24:40.244Z,44.98
2023-02-20T14:27:29.206Z,45.72
2023-02-20T14:30:05.929Z,44.52
2023-02-20T14:32:32.433Z,45.28
2023-02-20T14:35:33.217Z,44.38
2023-02-20T14:38:04.651Z,45.61
2023-02-20T14:40:42.667Z,45.00
2023-02-20T14:43:16.687Z,44.23
2023-02-20T14:45:45.111Z,44.97
2023-02-20T14:48:29.905Z,44.77
2023-02-20T14:51:12.496Z,44.20
2023-02-20T14:53:39.067Z,45.38
2023-02-20T14:56:16.716Z,44.75
2023-02-20T14:58:46.745Z,45.33
2023-02-20T15:01:26.677Z,45.60
2023-02-20T15:04:03.510Z,45.30
2023-02-20T15:06:33.833Z,44.84
2023-02-20T15:09:09.797Z,45.42
2023-02-20T15:12:19.778Z,45.97
2023-02-20T15:14:52.977Z,46.05
2023-02-20T15:17:23.583Z,45.37
2023-02-20T15:19:50.258Z,46.05
2023-02-20T15:22:32.247Z,46.26
2023-02-20T15:25:28.012Z,45.84
2023-02-20T15:28:25.162Z,46.49
2023-02-20T15:31:06.547Z,46.50
2023-02-20T15:33:36.422Z,47.01
2023-02-20T15:36:04.618Z,47.00
2023-02-20T15:38:34.229Z,46.98
2023-02-20T15:41:03.547Z,47.53
2023-02-20T15:43:43.224Z,47.74
2023-02-20T15:46:12.820Z,48.03
2023-02-20T15:48:39.344Z,48.01
2023-02-20T15:51:06.206Z,48.43
2023-02-20T15:53:33.580Z,48.37
2023-02-20T15:56:00.582Z,48.51
2023-02-20T15:58:35.526Z,48.72
2023-02-20T16:01:02.440Z,48.98
2023-02-20T16:03:33.892Z,49.02
2023-02-20T16:06:05.802Z,49.10
2023-02-20T16:08:32.120Z,49.11
2023-02-20T16:10:58.572Z,49.35
2023-02-20T16:13:35.611Z,49.78
2023-02-20T16:16:24.920Z,49.65
2023-02-20T16:18:52.034Z,49.21
2023-02-20T16:21:20.951Z,49.30
2023-02-20T16:23:47.396Z,50.15
2023-02-20T16:26:14.555Z,50.10
2023-02-20T16:28:41.074Z,49.40
2023-02-20T16:31:07.487Z,49.38
2023-02-20T16:33:34.140Z,49.70
2023-02-20T16:36:00.788Z,50.29
2023-02-20T16:38:27.079Z,49.78
2023-02-20T16:40:53.400Z,50.82
2023-02-20T16:43:21.726Z,50.55
2023-02-20T16:45:50.963Z,50.48
2023-02-20T16:48:20.110Z,51.25
2023-02-20T16:50:51.808Z,51.53
2023-02-20T16:53:19.523Z,51.84
2023-02-20T16:55:46.319Z,52.24
2023-02-20T16:58:13.753Z,52.44
2023-02-20T17:00:51.038Z,52.41
2023-02-20T17:03:23.353Z,52.86
2023-02-20T17:05:49.680Z,53.49
2023-02-20T17:08:16.018Z,52.94
2023-02-20T17:10:42.441Z,53.31
2023-02-20T17:13:08.743Z,54.44
2023-02-20T17:15:37.323Z,54.34
2023-02-20T17:18:04.866Z,54.22
2023-02-20T17:20:31.398Z,54.61
2023-02-20T17:23:04.745Z,55.12
2023-02-20T17:25:32.911Z,55.38
2023-02-20T17:27:59.230Z,55.50
2023-02-20T17:30:25.944Z,55.48
2023-02-20T17:32:53.408Z,56.38
2023-02-20T17:35:19.768Z,56.65
2023-02-20T17:37:46.192Z,56.84
2023-02-20T17:40:12.743Z,56.30
2023-02-20T17:42:39.090Z,57.36
2023-02-20T17:45:05.774Z,57.57
2023-02-20T17:47:32.128Z,57.78
2023-02-20T17:49:58.704Z,57.24
2023-02-20T17:52:25.123Z,56.71
2023-02-20T17:54:52.420Z,57.50
2023-02-20T17:57:19.571Z,58.18
2023-02-20T17:59:47.363Z,57.81
2023-02-20T18:02:14.078Z,57.66
2023-02-20T18:04:41.661Z,57.99
2023-02-20T18:07:09.865Z,57.84
2023-02-20T18:09:36.248Z,57.32
2023-02-20T18:12:03.738Z,58.45
2023-02-20T18:14:30.247Z,58.87
2023-02-20T18:16:56.606Z,57.73
2023-02-20T18:19:23.173Z,58.62
2023-02-20T18:21:50.214Z,58.58
2023-02-20T18:24:24.090Z,58.37
2023-02-20T18:26:52.300Z,58.54
2023-02-20T18:29:18.683Z,58.71
2023-02-20T18:31:45.134Z,59.04
2023-02-20T18:34:11.655Z,59.44
2023-02-20T18:36:38.000Z,61.08
2023-02-20T18:39:05.678Z,60.50
2023-02-20T18:41:32.107Z,60.59
2023-02-20T18:43:58.517Z,59.75
2023-02-20T18:46:27.434Z,59.16
2023-02-20T18:48:54.170Z,59.02
2023-02-20T18:51:31.946Z,59.56
2023-02-20T18:53:58.308Z,59.22
2023-02-20T18:56:27.170Z,59.68
2023-02-20T18:58:53.905Z,60.29
2023-02-20T19:01:21.345Z,59.42
2023-02-20T19:03:48.655Z,60.46
2023-02-20T19:06:25.107Z,59.58
2023-02-20T19:08:51.483Z,60.17
2023-02-20T19:11:17.824Z,60.33
2023-02-20T19:13:44.223Z,60.98
2023-02-20T19:16:10.600Z,61.53
2023-02-20T19:18:49.842Z,61.39
2023-02-20T19:21:18.068Z,61.06
2023-02-20T19:23:45.921Z,61.26
2023-02-20T19:26:12.980Z,61.91
2023-02-20T19:28:40.028Z,61.98
2023-02-20T19:31:06.656Z,62.24
2023-02-20T19:33:33.029Z,61.90
2023-02-20T19:36:00.640Z,61.94
2023-02-20T19:38:26.892Z,62.65
2023-02-20T19:40:53.221Z,62.26
2023-02-20T19:43:19.697Z,62.02
2023-02-20T19:45:46.233Z,61.54
2023-02-20T19:48:12.666Z,61.82
2023-02-20T19:50:39.070Z,61.80
2023-02-20T19:53:05.553Z,62.20
2023-02-20T19:55:32.115Z,62.32
2023-02-20T19:57:59.485Z,63.00
2023-02-20T20:00:26.156Z,63.04
2023-02-20T20:02:52.492Z,63.03
2023-02-20T20:05:19.341Z,62.50
2023-02-20T20:07:45.757Z,63.30
2023-02-20T20:10:12.249Z,63.22
2023-02-20T20:12:38.570Z,63.77
2023-02-20T20:15:05.846Z,63.87
2023-02-20T20:17:32.404Z,64.19
2023-02-20T20:20:00.017Z,63.35
2023-02-20T20:22:30.903Z,64.12
2023-02-20T20:24:58.073Z,63.99
2023-02-20T20:27:24.413Z,64.32
2023-02-20T20:29:51.518Z,64.37
2023-02-20T20:32:19.604Z,64.29
2023-02-20T20:34:50.553Z,65.25
2023-02-20T20:37:17.061Z,64.73
2023-02-20T20:39:43.383Z,65.20
2023-02-20T20:42:09.707Z,65.29
2023-02-20T20:44:36.099Z,65.77
2023-02-20T20:47:02.451Z,65.26
2023-02-20T20:49:28.770Z,65.71
2023-02-20T20:51:55.084Z,65.38
2023-02-20T20:54:21.518Z,65.92
2023-02-20T20:56:49.943Z,67.16
2023-02-20T20:59:17.048Z,67.10
2023-02-20T21:01:44.581Z,66.81
2023-02-20T21:04:11.909Z,69.07
2023-02-20T21:06:38.410Z,67.73
2023-02-20T21:09:04.739Z,68.93
2023-02-20T21:11:32.248Z,68.80
2023-02-20T21:14:00.137Z,67.58
2023-02-20T21:16:26.825Z,68.38
2023-02-20T21:18:53.283Z,67.96
2023-02-20T21:21:26.032Z,68.58
2023-02-20T21:23:52.616Z,67.92
2023-02-20T21:26:19.326Z,68.61
2023-02-20T21:28:45.947Z,68.65
2023-02-20T21:31:12.834Z,67.78
2023-02-20T21:33:40.055Z,68.04
2023-02-20T21:36:07.243Z,67.84
2023-02-20T21:38:34.349Z,67.46
2023-02-20T21:41:02.326Z,67.32
2023-02-20T21:43:28.636Z,66.87
2023-02-20T21:45:55.291Z,67.05
2023-02-20T21:48:21.626Z,67.44
2023-02-20T21:50:48.465Z,66.89
2023-02-20T21:53:14.834Z,67.03
2023-02-20T21:55:41.521Z,67.69
2023-02-20T21:58:08.015Z,66.54
2023-02-20T22:00:34.374Z,66.63
2023-02-20T22:03:00.827Z,66.72
2023-02-20T22:05:27.661Z,67.23
2023-02-20T22:07:54.015Z,66.56
2023-02-20T22:10:20.430Z,66.96
2023-02-20T22:12:46.898Z,66.87
2023-02-20T22:15:14.494Z,66.72
2023-02-20T22:17:40.930Z,66.60
2023-02-20T22:20:07.902Z,66.72
2023-02-20T22:22:34.336Z,66.83
2023-02-20T22:25:00.787Z,66.94
2023-02-20T22:27:27.172Z,67.19
2023-02-20T22:29:54.042Z,66.23
2023-02-20T22:32:21.083Z,66.78
2023-02-20T22:34:47.449Z,66.03
2023-02-20T22:37:13.723Z,66.32
2023-02-20T22:39:40.116Z,67.11
2023-02-20T22:42:06.609Z,66.85
2023-02-20T22:44:32.914Z,66.80
2023-02-20T22:46:59.293Z,66.60
2023-02-20T22:49:25.694Z,66.55
2023-02-20T22:51:52.023Z,66.63
2023-02-20T22:54:21.950Z,66.78
2023-02-20T22:56:48.311Z,66.90
2023-02-20T22:59:14.631Z,67.20
2023-02-20T23:01:40.980Z,67.37
2023-02-20T23:04:07.295Z,67.08
2023-02-20T23:06:33.706Z,67.38
2023-02-20T23:09:00.020Z,67.79
2023-02-20T23:11:26.345Z,68.19
2023-02-20T23:13:52.620Z,68.23
2023-02-20T23:16:21.241Z,68.07
2023-02-20T23:18:47.661Z,68.36
2023-02-20T23:21:14.764Z,68.53
2023-02-20T23:23:41.210Z,68.76
2023-02-20T23:26:07.881Z,69.08
2023-02-20T23:28:37.390Z,69.74
2023-02-20T23:31:04.355Z,69.71
2023-02-20T23:33:30.811Z,69.34
2023-02-20T23:35:57.118Z,70.22
2023-02-20T23:38:23.405Z,69.83
2023-02-20T23:40:49.757Z,70.37
2023-02-20T23:43:16.022Z,69.93
2023-02-20T23:45:42.496Z,69.67
2023-02-20T23:48:09.072Z,70.28
2023-02-20T23:50:35.449Z,70.42
2023-02-20T23:53:01.850Z,70.78
2023-02-20T23:55:28.309Z,70.42
2023-02-20T23:57:54.713Z,71.41
